DAL7060 KSLC-KLAX
Flight info
| Callsign | DAL7060 |
|---|---|
| Flight time | 1h 27m |
| Altitude | 40000 |
| Route | KSLC/34R N0486F400 ARCHZ1 WINEN DCT LAKRR DCT HAKMN ANJLL4 KLAX/25L |
| Aircraft | A350/H-SDE2E3GHIJ3J4J5LM1ORWXY/LB1D1 |
Departure
| Time | 2026-04-23 03:39 |
|---|---|
| Airport | Salt Lake City International Airport (KSLC) |
Arrival
| Time | 2026-04-23 05:06 |
|---|---|
| Airport | Los Angeles International Airport (KLAX) |
| Time | Latitude | Longitude | Altitude | Speed | Heading |
|---|---|---|---|---|---|
| 2026-04-23 03:24 | 40.78637 | -111.98613 | 4241 ft | 0 kts | 175° |
| 2026-04-23 03:29 | 40.78645 | -111.98613 | 4240 ft | 3 kts | 175° |
| 2026-04-23 03:29 | 40.78665 | -111.98616 | 4240 ft | 3 kts | 163° |
| 2026-04-23 03:29 | 40.78683 | -111.98628 | 4240 ft | 3 kts | 141° |
| 2026-04-23 03:29 | 40.78697 | -111.98647 | 4238 ft | 3 kts | 120° |
| 2026-04-23 03:30 | 40.78703 | -111.98664 | 4239 ft | 0 kts | 107° |
| 2026-04-23 03:33 | 40.78697 | -111.98615 | 4241 ft | 10 kts | 87° |
| 2026-04-23 03:33 | 40.78707 | -111.98470 | 4241 ft | 20 kts | 85° |
| 2026-04-23 03:34 | 40.78720 | -111.98276 | 4241 ft | 22 kts | 85° |
| 2026-04-23 03:34 | 40.78734 | -111.98067 | 4241 ft | 23 kts | 84° |
| 2026-04-23 03:34 | 40.78748 | -111.97857 | 4241 ft | 21 kts | 85° |
| 2026-04-23 03:34 | 40.78771 | -111.97692 | 4241 ft | 17 kts | 59° |
| 2026-04-23 03:35 | 40.78754 | -111.97562 | 4242 ft | 16 kts | 143° |
| 2026-04-23 03:35 | 40.78663 | -111.97539 | 4241 ft | 12 kts | 210° |
| 2026-04-23 03:35 | 40.78626 | -111.97630 | 4239 ft | 11 kts | 237° |
| 2026-04-23 03:35 | 40.78560 | -111.97657 | 4241 ft | 11 kts | 180° |
| 2026-04-23 03:36 | 40.78449 | -111.97646 | 4241 ft | 21 kts | 175° |
| 2026-04-23 03:36 | 40.78299 | -111.97628 | 4241 ft | 22 kts | 175° |
| 2026-04-23 03:36 | 40.78142 | -111.97610 | 4241 ft | 23 kts | 175° |
| 2026-04-23 03:36 | 40.77977 | -111.97589 | 4240 ft | 24 kts | 169° |
| 2026-04-23 03:37 | 40.77816 | -111.97524 | 4241 ft | 24 kts | 170° |
| 2026-04-23 03:37 | 40.77714 | -111.97511 | 4241 ft | 13 kts | 174° |
| 2026-04-23 03:37 | 40.77616 | -111.97500 | 4241 ft | 15 kts | 175° |
| 2026-04-23 03:37 | 40.77518 | -111.97488 | 4241 ft | 10 kts | 175° |
| 2026-04-23 03:38 | 40.77471 | -111.97470 | 4241 ft | 6 kts | 149° |
| 2026-04-23 03:38 | 40.77451 | -111.97416 | 4241 ft | 8 kts | 85° |
| 2026-04-23 03:38 | 40.77492 | -111.97347 | 4241 ft | 12 kts | 38° |
| 2026-04-23 03:38 | 40.77585 | -111.97328 | 4241 ft | 16 kts | 356° |
| 2026-04-23 03:39 | 40.77815 | -111.97354 | 4241 ft | 64 kts | 355° |
| 2026-04-23 03:39 | 40.78492 | -111.97433 | 4241 ft | 129 kts | 354° |
| 2026-04-23 03:39 | 40.79574 | -111.97486 | 4335 ft | 174 kts | 358° |
| 2026-04-23 03:39 | 40.80822 | -111.97615 | 4910 ft | 181 kts | 345° |
| 2026-04-23 03:40 | 40.81885 | -111.98335 | 5701 ft | 173 kts | 315° |
| 2026-04-23 03:40 | 40.82388 | -111.99818 | 6042 ft | 188 kts | 269° |
| 2026-04-23 03:40 | 40.82169 | -112.01571 | 6541 ft | 200 kts | 263° |
| 2026-04-23 03:40 | 40.81893 | -112.03433 | 6988 ft | 215 kts | 256° |
| 2026-04-23 03:41 | 40.81372 | -112.05368 | 7283 ft | 237 kts | 251° |
| 2026-04-23 03:41 | 40.80734 | -112.07475 | 7594 ft | 257 kts | 250° |
| 2026-04-23 03:41 | 40.80072 | -112.09732 | 8256 ft | 262 kts | 251° |
| 2026-04-23 03:41 | 40.79481 | -112.11986 | 8975 ft | 264 kts | 253° |
| 2026-04-23 03:42 | 40.78907 | -112.14304 | 9755 ft | 267 kts | 253° |
| 2026-04-23 03:42 | 40.78349 | -112.16647 | 10436 ft | 271 kts | 254° |
| 2026-04-23 03:42 | 40.77700 | -112.19091 | 10690 ft | 292 kts | 251° |
| 2026-04-23 03:42 | 40.76962 | -112.21661 | 11022 ft | 307 kts | 251° |
| 2026-04-23 03:43 | 40.76061 | -112.24289 | 11398 ft | 321 kts | 240° |
| 2026-04-23 03:43 | 40.74556 | -112.26493 | 12038 ft | 330 kts | 220° |
| 2026-04-23 03:43 | 40.72480 | -112.27853 | 12630 ft | 341 kts | 198° |
| 2026-04-23 03:43 | 40.70125 | -112.28454 | 13249 ft | 347 kts | 193° |
| 2026-04-23 03:44 | 40.67727 | -112.28946 | 13893 ft | 350 kts | 192° |
| 2026-04-23 03:44 | 40.65309 | -112.29420 | 14471 ft | 353 kts | 192° |
| 2026-04-23 03:44 | 40.62867 | -112.29888 | 15006 ft | 357 kts | 191° |
| 2026-04-23 03:44 | 40.60388 | -112.30355 | 15546 ft | 361 kts | 192° |
| 2026-04-23 03:45 | 40.57895 | -112.30860 | 16104 ft | 365 kts | 192° |
| 2026-04-23 03:45 | 40.55413 | -112.31582 | 16676 ft | 365 kts | 199° |
| 2026-04-23 03:45 | 40.52971 | -112.32541 | 17233 ft | 368 kts | 200° |
| 2026-04-23 03:45 | 40.50518 | -112.33561 | 17781 ft | 371 kts | 201° |
| 2026-04-23 03:46 | 40.48044 | -112.34598 | 18330 ft | 375 kts | 201° |
| 2026-04-23 03:46 | 40.45546 | -112.35640 | 18792 ft | 379 kts | 200° |
| 2026-04-23 03:46 | 40.43019 | -112.36686 | 19247 ft | 383 kts | 200° |
| 2026-04-23 03:46 | 40.40466 | -112.37734 | 19705 ft | 386 kts | 200° |
| 2026-04-23 03:47 | 40.37883 | -112.38788 | 20159 ft | 390 kts | 200° |
| 2026-04-23 03:47 | 40.35282 | -112.39850 | 20613 ft | 393 kts | 199° |
| 2026-04-23 03:47 | 40.32654 | -112.40919 | 21069 ft | 397 kts | 199° |
| 2026-04-23 03:47 | 40.30045 | -112.41974 | 21524 ft | 399 kts | 199° |
| 2026-04-23 03:48 | 40.27379 | -112.43049 | 22018 ft | 401 kts | 199° |
| 2026-04-23 03:48 | 40.24705 | -112.44137 | 22502 ft | 404 kts | 199° |
| 2026-04-23 03:48 | 40.22012 | -112.45225 | 22970 ft | 406 kts | 198° |
| 2026-04-23 03:48 | 40.19315 | -112.46342 | 23445 ft | 408 kts | 201° |
| 2026-04-23 03:49 | 40.16711 | -112.47814 | 23896 ft | 407 kts | 208° |
| 2026-04-23 03:49 | 40.14219 | -112.49528 | 24451 ft | 404 kts | 210° |
| 2026-04-23 03:49 | 40.11752 | -112.51273 | 24969 ft | 402 kts | 211° |
| 2026-04-23 03:49 | 40.09292 | -112.53021 | 25415 ft | 403 kts | 211° |
| 2026-04-23 03:50 | 40.06829 | -112.54766 | 25931 ft | 403 kts | 211° |
| 2026-04-23 03:50 | 40.04364 | -112.56501 | 26464 ft | 402 kts | 212° |
| 2026-04-23 03:50 | 40.01906 | -112.58223 | 27031 ft | 401 kts | 212° |
| 2026-04-23 03:50 | 39.99452 | -112.59942 | 27635 ft | 400 kts | 213° |
| 2026-04-23 03:51 | 39.97003 | -112.61657 | 28228 ft | 399 kts | 213° |
| 2026-04-23 03:51 | 39.94558 | -112.63369 | 28816 ft | 399 kts | 214° |
| 2026-04-23 03:51 | 39.92113 | -112.65080 | 29369 ft | 399 kts | 214° |
| 2026-04-23 03:51 | 39.89666 | -112.66793 | 29954 ft | 400 kts | 214° |
| 2026-04-23 03:52 | 39.87213 | -112.68511 | 30418 ft | 401 kts | 214° |
| 2026-04-23 03:52 | 39.84741 | -112.70244 | 30739 ft | 406 kts | 215° |
| 2026-04-23 03:52 | 39.82244 | -112.71997 | 31082 ft | 410 kts | 215° |
| 2026-04-23 03:52 | 39.79727 | -112.73760 | 31435 ft | 413 kts | 214° |
| 2026-04-23 03:53 | 39.77182 | -112.75539 | 31755 ft | 417 kts | 214° |
| 2026-04-23 03:53 | 39.74612 | -112.77330 | 32081 ft | 421 kts | 214° |
| 2026-04-23 03:53 | 39.72020 | -112.79133 | 32397 ft | 424 kts | 214° |
| 2026-04-23 03:53 | 39.69402 | -112.80931 | 32707 ft | 429 kts | 213° |
| 2026-04-23 03:54 | 39.66627 | -112.82465 | 32985 ft | 438 kts | 206° |
| 2026-04-23 03:54 | 39.63711 | -112.83698 | 33296 ft | 443 kts | 204° |
| 2026-04-23 03:54 | 39.60747 | -112.84867 | 33588 ft | 447 kts | 204° |
| 2026-04-23 03:54 | 39.57761 | -112.86039 | 33881 ft | 450 kts | 204° |
| 2026-04-23 03:55 | 39.54759 | -112.87222 | 34123 ft | 453 kts | 204° |
| 2026-04-23 03:55 | 39.51742 | -112.88416 | 34365 ft | 455 kts | 204° |
| 2026-04-23 03:55 | 39.48705 | -112.89620 | 34609 ft | 457 kts | 204° |
| 2026-04-23 03:55 | 39.45698 | -112.90812 | 34865 ft | 458 kts | 204° |
| 2026-04-23 03:56 | 39.42612 | -112.92035 | 35194 ft | 458 kts | 204° |
| 2026-04-23 03:56 | 39.39602 | -112.93227 | 35506 ft | 458 kts | 204° |
| 2026-04-23 03:56 | 39.36553 | -112.94435 | 35812 ft | 459 kts | 204° |
| 2026-04-23 03:56 | 39.33496 | -112.95646 | 36110 ft | 459 kts | 204° |
| 2026-04-23 03:57 | 39.30439 | -112.96855 | 36413 ft | 460 kts | 204° |
| 2026-04-23 03:57 | 39.27379 | -112.98064 | 36722 ft | 460 kts | 204° |
| 2026-04-23 03:57 | 39.24316 | -112.99273 | 37032 ft | 461 kts | 204° |
| 2026-04-23 03:57 | 39.21246 | -113.00484 | 37352 ft | 461 kts | 204° |
| 2026-04-23 03:58 | 39.18181 | -113.01693 | 37660 ft | 461 kts | 204° |
| 2026-04-23 03:58 | 39.15108 | -113.02903 | 37993 ft | 461 kts | 204° |
| 2026-04-23 03:58 | 39.12043 | -113.04109 | 38306 ft | 461 kts | 204° |
| 2026-04-23 03:58 | 39.08973 | -113.05316 | 38604 ft | 462 kts | 204° |
| 2026-04-23 03:59 | 39.05898 | -113.06523 | 38842 ft | 462 kts | 204° |
| 2026-04-23 03:59 | 39.02824 | -113.07730 | 39076 ft | 462 kts | 204° |
| 2026-04-23 03:59 | 38.99750 | -113.08935 | 39289 ft | 462 kts | 203° |
| 2026-04-23 03:59 | 38.96668 | -113.10143 | 39488 ft | 463 kts | 203° |
| 2026-04-23 04:00 | 38.93586 | -113.11349 | 39697 ft | 463 kts | 203° |
| 2026-04-23 04:00 | 38.90502 | -113.12555 | 39889 ft | 464 kts | 203° |
| 2026-04-23 04:00 | 38.84304 | -113.14975 | 39950 ft | 466 kts | 203° |
| 2026-04-23 04:01 | 38.78106 | -113.17390 | 39946 ft | 466 kts | 203° |
| 2026-04-23 04:01 | 38.71906 | -113.19801 | 39953 ft | 465 kts | 204° |
| 2026-04-23 04:02 | 38.65712 | -113.22206 | 39966 ft | 465 kts | 204° |
| 2026-04-23 04:02 | 38.59521 | -113.24605 | 39977 ft | 465 kts | 204° |
| 2026-04-23 04:03 | 38.53322 | -113.26989 | 39975 ft | 465 kts | 203° |
| 2026-04-23 04:03 | 38.47134 | -113.29371 | 39987 ft | 465 kts | 204° |
| 2026-04-23 04:04 | 38.40949 | -113.31769 | 39982 ft | 464 kts | 204° |
| 2026-04-23 04:04 | 38.34760 | -113.34133 | 39970 ft | 464 kts | 204° |
| 2026-04-23 04:05 | 38.28573 | -113.36500 | 39955 ft | 464 kts | 204° |
| 2026-04-23 04:05 | 38.22429 | -113.38852 | 39938 ft | 464 kts | 204° |
| 2026-04-23 04:06 | 38.16248 | -113.41218 | 39931 ft | 464 kts | 204° |
| 2026-04-23 04:06 | 38.10076 | -113.43576 | 39932 ft | 463 kts | 204° |
| 2026-04-23 04:07 | 38.03910 | -113.45928 | 39928 ft | 463 kts | 204° |
| 2026-04-23 04:07 | 37.97744 | -113.48276 | 39931 ft | 462 kts | 204° |
| 2026-04-23 04:08 | 37.91589 | -113.50609 | 39926 ft | 462 kts | 204° |
| 2026-04-23 04:08 | 37.85450 | -113.52976 | 39924 ft | 459 kts | 205° |
| 2026-04-23 04:09 | 37.79461 | -113.55701 | 39921 ft | 457 kts | 207° |
| 2026-04-23 04:09 | 37.73501 | -113.58482 | 39919 ft | 457 kts | 207° |
| 2026-04-23 04:10 | 37.67507 | -113.61159 | 39916 ft | 457 kts | 206° |
| 2026-04-23 04:10 | 37.61490 | -113.63770 | 39915 ft | 457 kts | 206° |
| 2026-04-23 04:11 | 37.55467 | -113.66364 | 39918 ft | 458 kts | 206° |
| 2026-04-23 04:11 | 37.50459 | -113.68520 | 39910 ft | 458 kts | 206° |
| 2026-04-23 04:12 | 37.43415 | -113.71553 | 39913 ft | 458 kts | 206° |
| 2026-04-23 04:12 | 37.37391 | -113.74144 | 39899 ft | 457 kts | 206° |
| 2026-04-23 04:13 | 37.32388 | -113.76290 | 39893 ft | 457 kts | 206° |
| 2026-04-23 04:13 | 37.26381 | -113.78863 | 39905 ft | 456 kts | 206° |
| 2026-04-23 04:14 | 37.20381 | -113.81429 | 39905 ft | 455 kts | 206° |
| 2026-04-23 04:14 | 37.14394 | -113.83987 | 39889 ft | 454 kts | 206° |
| 2026-04-23 04:15 | 37.08416 | -113.86536 | 39895 ft | 454 kts | 206° |
| 2026-04-23 04:16 | 36.99457 | -113.90349 | 39883 ft | 453 kts | 206° |
| 2026-04-23 04:16 | 36.93498 | -113.92880 | 39867 ft | 452 kts | 206° |
| 2026-04-23 04:17 | 36.87546 | -113.95403 | 39860 ft | 452 kts | 206° |
| 2026-04-23 04:17 | 36.81594 | -113.97923 | 39859 ft | 451 kts | 206° |
| 2026-04-23 04:18 | 36.75647 | -114.00436 | 39855 ft | 451 kts | 206° |
| 2026-04-23 04:18 | 36.69705 | -114.02943 | 39855 ft | 450 kts | 206° |
| 2026-04-23 04:19 | 36.63775 | -114.05440 | 39854 ft | 449 kts | 206° |
| 2026-04-23 04:19 | 36.57854 | -114.07930 | 39850 ft | 448 kts | 207° |
| 2026-04-23 04:20 | 36.51958 | -114.10442 | 39841 ft | 448 kts | 206° |
| 2026-04-23 04:20 | 36.46095 | -114.12901 | 39837 ft | 447 kts | 206° |
| 2026-04-23 04:21 | 36.40193 | -114.15348 | 39835 ft | 447 kts | 206° |
| 2026-04-23 04:21 | 36.34304 | -114.17791 | 39835 ft | 446 kts | 206° |
| 2026-04-23 04:22 | 36.28428 | -114.20240 | 39823 ft | 445 kts | 206° |
| 2026-04-23 04:22 | 36.22556 | -114.22691 | 39823 ft | 445 kts | 206° |
| 2026-04-23 04:23 | 36.16679 | -114.25138 | 39822 ft | 445 kts | 206° |
| 2026-04-23 04:23 | 36.10952 | -114.27895 | 39823 ft | 436 kts | 214° |
| 2026-04-23 04:24 | 36.06070 | -114.32103 | 39825 ft | 422 kts | 229° |
| 2026-04-23 04:24 | 36.02106 | -114.37392 | 39824 ft | 419 kts | 233° |
| 2026-04-23 04:25 | 35.98250 | -114.42783 | 39833 ft | 419 kts | 233° |
| 2026-04-23 04:25 | 35.94373 | -114.48168 | 39845 ft | 419 kts | 233° |
| 2026-04-23 04:26 | 35.90491 | -114.53536 | 39866 ft | 419 kts | 233° |
| 2026-04-23 04:26 | 35.86634 | -114.58857 | 39884 ft | 419 kts | 233° |
| 2026-04-23 04:27 | 35.82749 | -114.64210 | 39900 ft | 419 kts | 233° |
| 2026-04-23 04:27 | 35.78861 | -114.69556 | 39917 ft | 419 kts | 233° |
| 2026-04-23 04:28 | 35.73024 | -114.77566 | 39932 ft | 419 kts | 232° |
| 2026-04-23 04:28 | 35.69125 | -114.82905 | 39938 ft | 419 kts | 232° |
| 2026-04-23 04:29 | 35.65227 | -114.88235 | 39947 ft | 419 kts | 232° |
| 2026-04-23 04:29 | 35.61328 | -114.93557 | 39952 ft | 419 kts | 232° |
| 2026-04-23 04:30 | 35.57430 | -114.98871 | 39963 ft | 419 kts | 232° |
| 2026-04-23 04:30 | 35.53531 | -115.04179 | 39967 ft | 419 kts | 232° |
| 2026-04-23 04:31 | 35.49626 | -115.09478 | 39975 ft | 419 kts | 232° |
| 2026-04-23 04:31 | 35.45641 | -115.14701 | 39988 ft | 419 kts | 231° |
| 2026-04-23 04:32 | 35.41656 | -115.19868 | 39994 ft | 420 kts | 231° |
| 2026-04-23 04:32 | 35.37644 | -115.25083 | 39990 ft | 420 kts | 231° |
| 2026-04-23 04:33 | 35.33638 | -115.30295 | 40006 ft | 420 kts | 231° |
| 2026-04-23 04:33 | 35.29626 | -115.35507 | 40011 ft | 421 kts | 231° |
| 2026-04-23 04:34 | 35.25610 | -115.40721 | 40019 ft | 421 kts | 231° |
| 2026-04-23 04:34 | 35.21591 | -115.45928 | 40023 ft | 421 kts | 231° |
| 2026-04-23 04:35 | 35.17571 | -115.51130 | 40022 ft | 421 kts | 231° |
| 2026-04-23 04:35 | 35.13548 | -115.56327 | 40024 ft | 421 kts | 231° |
| 2026-04-23 04:36 | 35.09523 | -115.61510 | 40024 ft | 420 kts | 231° |
| 2026-04-23 04:36 | 35.05482 | -115.66668 | 40024 ft | 420 kts | 231° |
| 2026-04-23 04:37 | 35.01445 | -115.71818 | 40020 ft | 419 kts | 231° |
| 2026-04-23 04:37 | 34.97413 | -115.76958 | 40016 ft | 419 kts | 231° |
| 2026-04-23 04:38 | 34.93389 | -115.82082 | 40014 ft | 418 kts | 231° |
| 2026-04-23 04:38 | 34.89369 | -115.87192 | 40004 ft | 417 kts | 231° |
| 2026-04-23 04:39 | 34.85360 | -115.92280 | 39998 ft | 416 kts | 231° |
| 2026-04-23 04:39 | 34.81356 | -115.97356 | 39994 ft | 415 kts | 231° |
| 2026-04-23 04:40 | 34.77360 | -116.02417 | 39992 ft | 414 kts | 231° |
| 2026-04-23 04:40 | 34.73414 | -116.07442 | 39993 ft | 413 kts | 231° |
| 2026-04-23 04:41 | 34.69446 | -116.12497 | 39986 ft | 413 kts | 231° |
| 2026-04-23 04:41 | 34.65481 | -116.17539 | 39987 ft | 413 kts | 231° |
| 2026-04-23 04:42 | 34.61514 | -116.22577 | 39999 ft | 413 kts | 231° |
| 2026-04-23 04:42 | 34.59534 | -116.25087 | 39881 ft | 409 kts | 231° |
| 2026-04-23 04:42 | 34.57570 | -116.27573 | 39210 ft | 409 kts | 232° |
| 2026-04-23 04:43 | 34.55592 | -116.30079 | 38435 ft | 412 kts | 232° |
| 2026-04-23 04:43 | 34.53608 | -116.32600 | 37474 ft | 415 kts | 232° |
| 2026-04-23 04:43 | 34.51610 | -116.35157 | 36549 ft | 419 kts | 232° |
| 2026-04-23 04:43 | 34.49605 | -116.37719 | 35780 ft | 420 kts | 231° |
| 2026-04-23 04:44 | 34.47589 | -116.40284 | 35041 ft | 420 kts | 231° |
| 2026-04-23 04:44 | 34.45565 | -116.42849 | 34268 ft | 422 kts | 231° |
| 2026-04-23 04:44 | 34.43544 | -116.45442 | 33349 ft | 424 kts | 232° |
| 2026-04-23 04:44 | 34.41710 | -116.48222 | 32458 ft | 422 kts | 238° |
| 2026-04-23 04:45 | 34.40201 | -116.51264 | 31564 ft | 421 kts | 244° |
| 2026-04-23 04:45 | 34.38885 | -116.54406 | 31168 ft | 412 kts | 245° |
| 2026-04-23 04:45 | 34.37639 | -116.57460 | 31029 ft | 398 kts | 245° |
| 2026-04-23 04:45 | 34.36434 | -116.60407 | 30893 ft | 384 kts | 245° |
| 2026-04-23 04:46 | 34.35264 | -116.63258 | 30701 ft | 373 kts | 245° |
| 2026-04-23 04:46 | 34.34118 | -116.66048 | 30257 ft | 369 kts | 245° |
| 2026-04-23 04:46 | 34.32978 | -116.68826 | 29692 ft | 368 kts | 245° |
| 2026-04-23 04:46 | 34.31848 | -116.71624 | 29121 ft | 373 kts | 246° |
| 2026-04-23 04:47 | 34.30710 | -116.74447 | 28554 ft | 373 kts | 246° |
| 2026-04-23 04:47 | 34.29582 | -116.77265 | 27999 ft | 371 kts | 246° |
| 2026-04-23 04:47 | 34.28460 | -116.80069 | 27452 ft | 368 kts | 246° |
| 2026-04-23 04:47 | 34.27344 | -116.82848 | 26903 ft | 366 kts | 246° |
| 2026-04-23 04:48 | 34.26234 | -116.85603 | 26366 ft | 364 kts | 246° |
| 2026-04-23 04:48 | 34.25130 | -116.88344 | 25835 ft | 362 kts | 246° |
| 2026-04-23 04:48 | 34.24031 | -116.91067 | 25306 ft | 360 kts | 246° |
| 2026-04-23 04:48 | 34.22950 | -116.93742 | 24791 ft | 358 kts | 246° |
| 2026-04-23 04:49 | 34.21861 | -116.96436 | 24292 ft | 355 kts | 246° |
| 2026-04-23 04:49 | 34.20890 | -116.99161 | 23804 ft | 352 kts | 251° |
| 2026-04-23 04:49 | 34.20092 | -117.01953 | 23249 ft | 349 kts | 252° |
| 2026-04-23 04:49 | 34.19338 | -117.04717 | 22657 ft | 345 kts | 253° |
| 2026-04-23 04:50 | 34.18604 | -117.07460 | 22136 ft | 342 kts | 253° |
| 2026-04-23 04:50 | 34.17876 | -117.10174 | 21648 ft | 338 kts | 253° |
| 2026-04-23 04:50 | 34.17146 | -117.12862 | 21146 ft | 335 kts | 253° |
| 2026-04-23 04:50 | 34.16423 | -117.15525 | 20636 ft | 332 kts | 253° |
| 2026-04-23 04:51 | 34.15715 | -117.18163 | 20160 ft | 330 kts | 253° |
| 2026-04-23 04:51 | 34.15010 | -117.20798 | 19659 ft | 329 kts | 253° |
| 2026-04-23 04:51 | 34.14296 | -117.23412 | 19234 ft | 321 kts | 253° |
| 2026-04-23 04:51 | 34.13624 | -117.25856 | 18969 ft | 294 kts | 253° |
| 2026-04-23 04:52 | 34.12994 | -117.28166 | 18368 ft | 290 kts | 253° |
| 2026-04-23 04:52 | 34.12361 | -117.30486 | 17812 ft | 292 kts | 253° |
| 2026-04-23 04:52 | 34.11725 | -117.32803 | 17376 ft | 289 kts | 253° |
| 2026-04-23 04:52 | 34.11093 | -117.35096 | 16906 ft | 287 kts | 253° |
| 2026-04-23 04:53 | 34.10465 | -117.37377 | 16474 ft | 286 kts | 253° |
| 2026-04-23 04:53 | 34.09870 | -117.39656 | 16042 ft | 284 kts | 254° |
| 2026-04-23 04:53 | 34.09311 | -117.41932 | 15589 ft | 282 kts | 254° |
| 2026-04-23 04:53 | 34.08754 | -117.44197 | 15157 ft | 281 kts | 254° |
| 2026-04-23 04:54 | 34.08196 | -117.46450 | 14738 ft | 280 kts | 254° |
| 2026-04-23 04:54 | 34.07641 | -117.48684 | 14382 ft | 276 kts | 254° |
| 2026-04-23 04:54 | 34.07162 | -117.50907 | 14030 ft | 273 kts | 256° |
| 2026-04-23 04:54 | 34.06756 | -117.53130 | 13650 ft | 270 kts | 257° |
| 2026-04-23 04:55 | 34.06372 | -117.55339 | 13262 ft | 269 kts | 257° |
| 2026-04-23 04:55 | 34.05996 | -117.57541 | 12881 ft | 268 kts | 257° |
| 2026-04-23 04:55 | 34.05622 | -117.59737 | 12498 ft | 267 kts | 257° |
| 2026-04-23 04:55 | 34.05251 | -117.61919 | 12125 ft | 266 kts | 257° |
| 2026-04-23 04:56 | 34.04882 | -117.64098 | 11753 ft | 265 kts | 257° |
| 2026-04-23 04:56 | 34.04514 | -117.66269 | 11391 ft | 264 kts | 257° |
| 2026-04-23 04:56 | 34.04147 | -117.68433 | 11023 ft | 263 kts | 257° |
| 2026-04-23 04:56 | 34.03785 | -117.70563 | 10680 ft | 262 kts | 257° |
| 2026-04-23 04:57 | 34.03419 | -117.72712 | 10326 ft | 261 kts | 257° |
| 2026-04-23 04:57 | 34.03055 | -117.74853 | 9969 ft | 261 kts | 257° |
| 2026-04-23 04:57 | 34.02685 | -117.77020 | 9577 ft | 260 kts | 257° |
| 2026-04-23 04:57 | 34.02324 | -117.79129 | 9190 ft | 260 kts | 257° |
| 2026-04-23 04:58 | 34.01959 | -117.81266 | 8813 ft | 261 kts | 257° |
| 2026-04-23 04:58 | 34.01588 | -117.83433 | 8422 ft | 260 kts | 257° |
| 2026-04-23 04:58 | 34.01228 | -117.85539 | 8047 ft | 260 kts | 257° |
| 2026-04-23 04:58 | 34.00861 | -117.87677 | 7674 ft | 260 kts | 258° |
| 2026-04-23 04:59 | 34.00495 | -117.89810 | 7302 ft | 260 kts | 258° |
| 2026-04-23 04:59 | 34.00129 | -117.91945 | 6930 ft | 260 kts | 258° |
| 2026-04-23 04:59 | 33.99762 | -117.94081 | 6566 ft | 260 kts | 258° |
| 2026-04-23 04:59 | 33.99394 | -117.96218 | 6188 ft | 260 kts | 258° |
| 2026-04-23 05:00 | 33.99026 | -117.98353 | 5799 ft | 260 kts | 258° |
| 2026-04-23 05:00 | 33.98660 | -118.00480 | 5438 ft | 259 kts | 258° |
| 2026-04-23 05:00 | 33.98293 | -118.02604 | 5101 ft | 259 kts | 258° |
| 2026-04-23 05:00 | 33.97927 | -118.04724 | 4780 ft | 258 kts | 258° |
| 2026-04-23 05:01 | 33.97566 | -118.06807 | 4447 ft | 258 kts | 258° |
| 2026-04-23 05:01 | 33.97201 | -118.08919 | 4114 ft | 257 kts | 258° |
| 2026-04-23 05:01 | 33.96837 | -118.11015 | 3793 ft | 253 kts | 258° |
| 2026-04-23 05:01 | 33.96482 | -118.13065 | 3499 ft | 247 kts | 258° |
| 2026-04-23 05:02 | 33.96141 | -118.15028 | 3205 ft | 230 kts | 258° |
| 2026-04-23 05:02 | 33.95821 | -118.16892 | 2925 ft | 225 kts | 260° |
| 2026-04-23 05:02 | 33.95615 | -118.18743 | 2656 ft | 221 kts | 266° |
| 2026-04-23 05:02 | 33.95566 | -118.19946 | 2474 ft | 212 kts | 269° |
| 2026-04-23 05:03 | 33.95444 | -118.21675 | 2187 ft | 205 kts | 264° |
| 2026-04-23 05:03 | 33.95256 | -118.23352 | 1966 ft | 197 kts | 264° |
| 2026-04-23 05:03 | 33.95089 | -118.24962 | 1895 ft | 189 kts | 264° |
| 2026-04-23 05:03 | 33.94936 | -118.26510 | 1905 ft | 185 kts | 263° |
| 2026-04-23 05:04 | 33.94786 | -118.28027 | 1797 ft | 178 kts | 264° |
| 2026-04-23 05:04 | 33.94643 | -118.29466 | 1559 ft | 169 kts | 264° |
| 2026-04-23 05:04 | 33.94502 | -118.30844 | 1329 ft | 162 kts | 263° |
| 2026-04-23 05:04 | 33.94367 | -118.32150 | 1125 ft | 152 kts | 263° |
| 2026-04-23 05:05 | 33.94247 | -118.33388 | 936 ft | 144 kts | 264° |
| 2026-04-23 05:05 | 33.94137 | -118.34545 | 737 ft | 134 kts | 264° |
| 2026-04-23 05:05 | 33.94023 | -118.35608 | 594 ft | 123 kts | 265° |
| 2026-04-23 05:05 | 33.93913 | -118.36622 | 421 ft | 121 kts | 262° |
| 2026-04-23 05:06 | 33.93791 | -118.37640 | 258 ft | 122 kts | 264° |
| 2026-04-23 05:06 | 33.93696 | -118.38627 | 125 ft | 114 kts | 264° |
| 2026-04-23 05:06 | 33.93621 | -118.39413 | 112 ft | 59 kts | 263° |
| 2026-04-23 05:06 | 33.93602 | -118.39592 | 116 ft | 6 kts | 263° |
| 2026-04-23 05:07 | 33.93602 | -118.39713 | 117 ft | 21 kts | 275° |
| 2026-04-23 05:07 | 33.93629 | -118.39874 | 117 ft | 20 kts | 294° |
| 2026-04-23 05:07 | 33.93666 | -118.40026 | 113 ft | 20 kts | 270° |
| 2026-04-23 05:07 | 33.93651 | -118.40202 | 110 ft | 22 kts | 263° |
| 2026-04-23 05:08 | 33.93634 | -118.40392 | 113 ft | 24 kts | 264° |
| 2026-04-23 05:08 | 33.93611 | -118.40579 | 113 ft | 20 kts | 262° |
| 2026-04-23 05:08 | 33.93597 | -118.40728 | 112 ft | 18 kts | 264° |
| 2026-04-23 05:08 | 33.93624 | -118.40873 | 113 ft | 18 kts | 319° |
| 2026-04-23 05:09 | 33.93711 | -118.40908 | 112 ft | 8 kts | 352° |
| 2026-04-23 05:09 | 33.93784 | -118.40942 | 108 ft | 14 kts | 307° |
| 2026-04-23 05:09 | 33.93775 | -118.41042 | 108 ft | 13 kts | 254° |
| 2026-04-23 05:09 | 33.93793 | -118.41140 | 106 ft | 14 kts | 330° |
| 2026-04-23 05:10 | 33.93853 | -118.41241 | 106 ft | 16 kts | 312° |
| 2026-04-23 05:10 | 33.93963 | -118.41276 | 103 ft | 17 kts | 354° |
| 2026-04-23 05:10 | 33.94058 | -118.41289 | 102 ft | 11 kts | 353° |
| 2026-04-23 05:10 | 33.94150 | -118.41302 | 102 ft | 15 kts | 353° |
| 2026-04-23 05:11 | 33.94257 | -118.41281 | 103 ft | 16 kts | 48° |
| 2026-04-23 05:11 | 33.94301 | -118.41232 | 103 ft | 6 kts | 10° |
| 2026-04-23 05:11 | 33.94373 | -118.41236 | 102 ft | 16 kts | 353° |
| 2026-04-23 05:11 | 33.94493 | -118.41254 | 102 ft | 19 kts | 353° |
| 2026-04-23 05:12 | 33.94624 | -118.41274 | 103 ft | 16 kts | 353° |
| 2026-04-23 05:12 | 33.94704 | -118.41221 | 104 ft | 14 kts | 69° |
| 2026-04-23 05:12 | 33.94730 | -118.41093 | 105 ft | 18 kts | 82° |
| 2026-04-23 05:12 | 33.94736 | -118.40959 | 103 ft | 12 kts | 105° |
| 2026-04-23 05:13 | 33.94685 | -118.40911 | 103 ft | 10 kts | 165° |
| 2026-04-23 05:13 | 33.94601 | -118.40895 | 102 ft | 13 kts | 174° |
| 2026-04-23 05:13 | 33.94525 | -118.40890 | 101 ft | 8 kts | 193° |
| 2026-04-23 05:14 | 33.94479 | -118.40976 | 103 ft | 5 kts | 259° |
| 2026-04-23 05:14 | 33.94478 | -118.40979 | 103 ft | 0 kts | 259° |
| 2026-04-23 05:14 | 33.94476 | -118.40993 | 102 ft | 0 kts | 259° |